CPA926 ZGHA-VHHH
Flight info
| Callsign | CPA926 |
|---|---|
| Flight time | N/A |
| Altitude | 34000 |
| Route | UBMOG W615 IDAXI R473 WYN W18 NLG W23 ZUH R473 SIERA SIER7C/07C |
| Aircraft | A359/H-SDE2E3GHIJ1J3J4J5LM1ORWXYZ/LB1D1 |
Departure
| Time | 2026-04-16 18:51 |
|---|---|
| Airport | Changsha Huanghua International Airport (ZGHA) |
Arrival
| Time | N/A |
|---|---|
| Airport | Hong Kong International Airport (VHHH) |
| Time | Latitude | Longitude | Altitude | Speed | Heading |
|---|---|---|---|---|---|
| 2026-04-16 18:33 | 28.19615 | 113.21549 | 224 ft | 0 kts | 260° |
| 2026-04-16 18:39 | 28.19617 | 113.21561 | 225 ft | 2 kts | 259° |
| 2026-04-16 18:40 | 28.19620 | 113.21578 | 225 ft | 2 kts | 259° |
| 2026-04-16 18:40 | 28.19622 | 113.21595 | 225 ft | 1 kts | 260° |
| 2026-04-16 18:40 | 28.19624 | 113.21605 | 225 ft | 2 kts | 256° |
| 2026-04-16 18:40 | 28.19630 | 113.21621 | 225 ft | 2 kts | 233° |
| 2026-04-16 18:41 | 28.19640 | 113.21633 | 225 ft | 2 kts | 215° |
| 2026-04-16 18:41 | 28.19653 | 113.21641 | 225 ft | 2 kts | 197° |
| 2026-04-16 18:41 | 28.19667 | 113.21644 | 225 ft | 1 kts | 179° |
| 2026-04-16 18:41 | 28.19672 | 113.21644 | 225 ft | 0 kts | 176° |
| 2026-04-16 18:44 | 28.19666 | 113.21644 | 224 ft | 3 kts | 176° |
| 2026-04-16 18:44 | 28.19620 | 113.21647 | 224 ft | 9 kts | 178° |
| 2026-04-16 18:44 | 28.19543 | 113.21651 | 224 ft | 14 kts | 177° |
| 2026-04-16 18:44 | 28.19443 | 113.21656 | 224 ft | 15 kts | 179° |
| 2026-04-16 18:45 | 28.19346 | 113.21652 | 224 ft | 13 kts | 178° |
| 2026-04-16 18:45 | 28.19249 | 113.21658 | 224 ft | 10 kts | 177° |
| 2026-04-16 18:45 | 28.19184 | 113.21671 | 224 ft | 7 kts | 150° |
| 2026-04-16 18:45 | 28.19161 | 113.21720 | 224 ft | 7 kts | 103° |
| 2026-04-16 18:46 | 28.19114 | 113.21770 | 225 ft | 11 kts | 166° |
| 2026-04-16 18:46 | 28.19009 | 113.21783 | 224 ft | 17 kts | 176° |
| 2026-04-16 18:46 | 28.18880 | 113.21789 | 224 ft | 18 kts | 177° |
| 2026-04-16 18:46 | 28.18746 | 113.21800 | 225 ft | 19 kts | 176° |
| 2026-04-16 18:47 | 28.18599 | 113.21807 | 225 ft | 22 kts | 176° |
| 2026-04-16 18:47 | 28.18436 | 113.21817 | 224 ft | 23 kts | 176° |
| 2026-04-16 18:47 | 28.18343 | 113.21824 | 225 ft | 2 kts | 176° |
| 2026-04-16 18:47 | 28.18300 | 113.21827 | 224 ft | 9 kts | 177° |
| 2026-04-16 18:48 | 28.18210 | 113.21832 | 225 ft | 16 kts | 177° |
| 2026-04-16 18:48 | 28.18078 | 113.21841 | 225 ft | 21 kts | 176° |
| 2026-04-16 18:48 | 28.17926 | 113.21851 | 224 ft | 21 kts | 177° |
| 2026-04-16 18:48 | 28.17804 | 113.21859 | 225 ft | 12 kts | 171° |
| 2026-04-16 18:49 | 28.17753 | 113.21897 | 224 ft | 6 kts | 116° |
| 2026-04-16 18:49 | 28.17745 | 113.21973 | 224 ft | 10 kts | 88° |
| 2026-04-16 18:49 | 28.17763 | 113.22029 | 224 ft | 5 kts | 46° |
| 2026-04-16 18:49 | 28.17795 | 113.22041 | 225 ft | 6 kts | 6° |
| 2026-04-16 18:50 | 28.17853 | 113.22041 | 224 ft | 17 kts | 356° |
| 2026-04-16 18:50 | 28.18232 | 113.22018 | 225 ft | 90 kts | 356° |
| 2026-04-16 18:50 | 28.19071 | 113.21965 | 225 ft | 150 kts | 356° |
| 2026-04-16 18:50 | 28.20204 | 113.21894 | 630 ft | 167 kts | 357° |
| 2026-04-16 18:51 | 28.21307 | 113.21822 | 1501 ft | 156 kts | 357° |
| 2026-04-16 18:51 | 28.22360 | 113.21767 | 2104 ft | 157 kts | 358° |
| 2026-04-16 18:51 | 28.23498 | 113.21709 | 2450 ft | 170 kts | 358° |
| 2026-04-16 18:51 | 28.24671 | 113.21646 | 2782 ft | 185 kts | 358° |
| 2026-04-16 18:52 | 28.26055 | 113.21566 | 3155 ft | 203 kts | 357° |
| 2026-04-16 18:52 | 28.27498 | 113.21479 | 3676 ft | 215 kts | 357° |
| 2026-04-16 18:52 | 28.28978 | 113.21388 | 4380 ft | 219 kts | 357° |
| 2026-04-16 18:52 | 28.30482 | 113.21295 | 5126 ft | 221 kts | 357° |
| 2026-04-16 18:53 | 28.32001 | 113.21201 | 5870 ft | 224 kts | 358° |
| 2026-04-16 18:53 | 28.33544 | 113.21105 | 6619 ft | 226 kts | 358° |
| 2026-04-16 18:53 | 28.35080 | 113.21010 | 7357 ft | 229 kts | 358° |
| 2026-04-16 18:53 | 28.36629 | 113.21109 | 8077 ft | 231 kts | 19° |
| 2026-04-16 18:54 | 28.37980 | 113.22051 | 8819 ft | 232 kts | 49° |
| 2026-04-16 18:54 | 28.38724 | 113.23624 | 9538 ft | 236 kts | 78° |
| 2026-04-16 18:54 | 28.38713 | 113.25414 | 10100 ft | 247 kts | 105° |
| 2026-04-16 18:54 | 28.37816 | 113.27101 | 10515 ft | 267 kts | 138° |
| 2026-04-16 18:55 | 28.36153 | 113.28096 | 10953 ft | 284 kts | 159° |
| 2026-04-16 18:55 | 28.34224 | 113.28817 | 11414 ft | 300 kts | 161° |
| 2026-04-16 18:55 | 28.32210 | 113.29541 | 11834 ft | 316 kts | 161° |
| 2026-04-16 18:55 | 28.30158 | 113.30290 | 12224 ft | 332 kts | 161° |
| 2026-04-16 18:56 | 28.27937 | 113.31116 | 12602 ft | 348 kts | 160° |
| 2026-04-16 18:56 | 28.25589 | 113.32000 | 12954 ft | 365 kts | 160° |
| 2026-04-16 18:56 | 28.23128 | 113.32934 | 13276 ft | 381 kts | 160° |
| 2026-04-16 18:56 | 28.20677 | 113.33868 | 13572 ft | 396 kts | 160° |
| 2026-04-16 18:57 | 28.18148 | 113.34833 | 14034 ft | 404 kts | 160° |
| 2026-04-16 18:57 | 28.15518 | 113.35837 | 14694 ft | 408 kts | 160° |
| 2026-04-16 18:57 | 28.12809 | 113.36871 | 15375 ft | 410 kts | 160° |
| 2026-04-16 18:58 | 28.07418 | 113.38929 | 16643 ft | 416 kts | 160° |
| 2026-04-16 18:58 | 28.04674 | 113.39976 | 17262 ft | 419 kts | 160° |
| 2026-04-16 18:58 | 28.01910 | 113.41031 | 17866 ft | 422 kts | 160° |
| 2026-04-16 18:58 | 27.99152 | 113.42083 | 18450 ft | 425 kts | 160° |
| 2026-04-16 18:59 | 27.96335 | 113.43156 | 19057 ft | 427 kts | 160° |
| 2026-04-16 18:59 | 27.93513 | 113.44231 | 19666 ft | 428 kts | 160° |
| 2026-04-16 18:59 | 27.90722 | 113.45294 | 20218 ft | 431 kts | 160° |
| 2026-04-16 18:59 | 27.87977 | 113.46337 | 20741 ft | 433 kts | 160° |
| 2026-04-16 19:00 | 27.85142 | 113.47409 | 21267 ft | 436 kts | 160° |
| 2026-04-16 19:00 | 27.82271 | 113.48495 | 21785 ft | 438 kts | 160° |
| 2026-04-16 19:00 | 27.80388 | 113.49208 | 22116 ft | 440 kts | 160° |
| 2026-04-16 19:00 | 27.76516 | 113.50676 | 22776 ft | 444 kts | 160° |
| 2026-04-16 19:01 | 27.73603 | 113.51780 | 23252 ft | 446 kts | 161° |
| 2026-04-16 19:01 | 27.70679 | 113.52889 | 23716 ft | 449 kts | 161° |
| 2026-04-16 19:01 | 27.67733 | 113.54005 | 24167 ft | 451 kts | 161° |
| 2026-04-16 19:01 | 27.65031 | 113.55028 | 24561 ft | 454 kts | 161° |
| 2026-04-16 19:02 | 27.62108 | 113.56135 | 24967 ft | 456 kts | 161° |
| 2026-04-16 19:02 | 27.59087 | 113.57278 | 25367 ft | 459 kts | 161° |
| 2026-04-16 19:02 | 27.56119 | 113.58401 | 25748 ft | 461 kts | 161° |
| 2026-04-16 19:02 | 27.53085 | 113.59547 | 26118 ft | 463 kts | 161° |
| 2026-04-16 19:03 | 27.50011 | 113.60708 | 26474 ft | 466 kts | 161° |
| 2026-04-16 19:03 | 27.47004 | 113.61844 | 26806 ft | 468 kts | 161° |
| 2026-04-16 19:03 | 27.43931 | 113.63004 | 27137 ft | 470 kts | 161° |
| 2026-04-16 19:03 | 27.40861 | 113.64162 | 27450 ft | 473 kts | 161° |
| 2026-04-16 19:04 | 27.37846 | 113.65299 | 27747 ft | 475 kts | 162° |
| 2026-04-16 19:04 | 27.34695 | 113.66499 | 28055 ft | 477 kts | 162° |
| 2026-04-16 19:04 | 27.31583 | 113.67683 | 28338 ft | 479 kts | 162° |
| 2026-04-16 19:04 | 27.28413 | 113.68877 | 28616 ft | 481 kts | 163° |
| 2026-04-16 19:05 | 27.25249 | 113.69944 | 28892 ft | 483 kts | 165° |
| 2026-04-16 19:05 | 27.21958 | 113.70863 | 29159 ft | 484 kts | 168° |
| 2026-04-16 19:05 | 27.18677 | 113.71581 | 29450 ft | 485 kts | 171° |
| 2026-04-16 19:05 | 27.15356 | 113.72140 | 29827 ft | 484 kts | 173° |
| 2026-04-16 19:06 | 27.12043 | 113.72666 | 30219 ft | 482 kts | 173° |
| 2026-04-16 19:06 | 27.08746 | 113.73187 | 30583 ft | 482 kts | 173° |
| 2026-04-16 19:06 | 27.05472 | 113.73705 | 30925 ft | 481 kts | 173° |
| 2026-04-16 19:06 | 27.02164 | 113.74230 | 31257 ft | 481 kts | 174° |
| 2026-04-16 19:07 | 26.98860 | 113.74760 | 31423 ft | 485 kts | 173° |
| 2026-04-16 19:07 | 26.95507 | 113.75290 | 31544 ft | 489 kts | 173° |
| 2026-04-16 19:07 | 26.92141 | 113.75819 | 31676 ft | 493 kts | 173° |
| 2026-04-16 19:07 | 26.88893 | 113.76331 | 31877 ft | 495 kts | 173° |
| 2026-04-16 19:08 | 26.85501 | 113.76865 | 32168 ft | 495 kts | 173° |
| 2026-04-16 19:08 | 26.82113 | 113.77403 | 32482 ft | 495 kts | 173° |
| 2026-04-16 19:08 | 26.78779 | 113.77934 | 32753 ft | 495 kts | 172° |
| 2026-04-16 19:08 | 26.75391 | 113.78565 | 32990 ft | 496 kts | 170° |
| 2026-04-16 19:09 | 26.72107 | 113.79362 | 33208 ft | 497 kts | 167° |
| 2026-04-16 19:09 | 26.68825 | 113.80340 | 33425 ft | 498 kts | 165° |
| 2026-04-16 19:09 | 26.65476 | 113.81393 | 33667 ft | 499 kts | 165° |
| 2026-04-16 19:09 | 26.62190 | 113.82427 | 33922 ft | 498 kts | 165° |
| 2026-04-16 19:10 | 26.58894 | 113.83462 | 34038 ft | 500 kts | 165° |
| 2026-04-16 19:10 | 26.52257 | 113.85535 | 34047 ft | 500 kts | 165° |
| 2026-04-16 19:11 | 26.45608 | 113.87552 | 34049 ft | 500 kts | 166° |
| 2026-04-16 19:11 | 26.39011 | 113.89452 | 34050 ft | 500 kts | 166° |
| 2026-04-16 19:12 | 26.32334 | 113.91370 | 34050 ft | 500 kts | 166° |
| 2026-04-16 19:12 | 26.25687 | 113.93284 | 34050 ft | 500 kts | 166° |
| 2026-04-16 19:13 | 26.19591 | 113.95039 | 34050 ft | 500 kts | 166° |